Terminal Aerodrome Forecast
Issued by NWS

Home | Current Version | Previous Version | Text Only | Print | Product List | Glossary Off
Versions: 1 2 3 4 5 6 7 8 9 10 11 12 13 14

936
FTUS45 KGGW 230523
TAFSDY
TAF
KSDY 230523Z 2306/2406 VRB03KT P6SM OVC050
      TEMPO 2306/2309 2SM -SN BKN020
     FM231500 04006KT P6SM OVC035
     FM232000 04008KT P6SM SCT003 BKN020=

USA.gov is the U.S. government's official web portal to all federal, state and local government web resources and services.